Huvudsida
METAR-TAF:

METAR-TAF

Flygplatser :

Mora, Sverige

Mora-Siljan flygplats

latitud: 60-57-31N, longitud: 14-30-40E, höjd: 193 m

Aktuellt väderrapport

Denna rapport gjordes för 16 minuter sedan, klockan 03:20 UTC
Stilla vind
Temperatur -7°C
Fuktighet 93%
Tryck 999 hPa
Sikt 10 km eller mer
kornsnö

METAR: ESKM 190320Z AUTO 00000KT 9999 SG FEW008/// BKN025/// OVC035/// M07/M08 Q0999

Tid: 04:36 (03:36 UTC)


TAF: saknas

Aktuella väderrapporter och prognoser från 4000 flygplatser (METAR- och TAF-rapporter).

De tillgängliga stationerna syns som gula och röda prickar på kartan.

För musen över prickarna för att se namnen på stationerna.

Klicka sedan för att få väderrapporter och prognoser.

För att ändra kartan: Klicka på de gröna knapparna med ett svart kors på för att zooma in; den gröna knappen med ett streck på för att zooma ut; eller på de gröna pilarna för angränsande kartor.


METAR-TAF: